sensor_id;sensor_type;location;lat;lon;timestamp;P1;durP1;ratioP1;P2;durP2;ratioP2
54360;SDS011;40258;53.936;27.540;2022-10-15T00:01:30;10.85;;;5.70;;
54360;SDS011;40258;53.936;27.540;2022-10-15T00:03:59;14.52;;;5.63;;
54360;SDS011;40258;53.936;27.540;2022-10-15T00:06:27;10.48;;;6.10;;
54360;SDS011;40258;53.936;27.540;2022-10-15T00:08:56;11.45;;;6.32;;
54360;SDS011;40258;53.936;27.540;2022-10-15T00:11:25;13.68;;;6.45;;
54360;SDS011;40258;53.936;27.540;2022-10-15T00:13:57;9.93;;;6.32;;
54360;SDS011;40258;53.936;27.540;2022-10-15T00:16:27;16.25;;;7.05;;
54360;SDS011;40258;53.936;27.540;2022-10-15T00:18:56;11.57;;;6.45;;
54360;SDS011;40258;53.936;27.540;2022-10-15T00:21:26;11.68;;;7.03;;
54360;SDS011;40258;53.936;27.540;2022-10-15T00:23:55;13.02;;;6.72;;
54360;SDS011;40258;53.936;27.540;2022-10-15T00:26:24;12.73;;;6.80;;
54360;SDS011;40258;53.936;27.540;2022-10-15T00:28:55;11.73;;;6.65;;
54360;SDS011;40258;53.936;27.540;2022-10-15T00:31:28;13.98;;;6.95;;
54360;SDS011;40258;53.936;27.540;2022-10-15T00:33:58;11.82;;;7.00;;
54360;SDS011;40258;53.936;27.540;2022-10-15T00:36:29;14.57;;;6.97;;
54360;SDS011;40258;53.936;27.540;2022-10-15T00:39:00;15.93;;;6.25;;
54360;SDS011;40258;53.936;27.540;2022-10-15T00:41:31;15.75;;;7.53;;
54360;SDS011;40258;53.936;27.540;2022-10-15T00:47:16;12.57;;;6.95;;
54360;SDS011;40258;53.936;27.540;2022-10-15T00:49:53;14.15;;;6.75;;
54360;SDS011;40258;53.936;27.540;2022-10-15T00:52:33;10.45;;;6.63;;
54360;SDS011;40258;53.936;27.540;2022-10-15T00:55:13;11.55;;;6.55;;
54360;SDS011;40258;53.936;27.540;2022-10-15T00:57:48;13.98;;;7.20;;
54360;SDS011;40258;53.936;27.540;2022-10-15T01:00:19;16.10;;;6.88;;
54360;SDS011;40258;53.936;27.540;2022-10-15T01:02:47;13.00;;;7.15;;
54360;SDS011;40258;53.936;27.540;2022-10-15T01:05:17;11.60;;;7.20;;
54360;SDS011;40258;53.936;27.540;2022-10-15T01:07:45;13.60;;;7.82;;
54360;SDS011;40258;53.936;27.540;2022-10-15T01:10:15;17.33;;;7.30;;
54360;SDS011;40258;53.936;27.540;2022-10-15T01:12:51;14.27;;;7.22;;
54360;SDS011;40258;53.936;27.540;2022-10-15T01:15:36;13.82;;;8.02;;
54360;SDS011;40258;53.936;27.540;2022-10-15T01:18:14;11.82;;;6.88;;
54360;SDS011;40258;53.936;27.540;2022-10-15T01:20:57;13.63;;;7.05;;
54360;SDS011;40258;53.936;27.540;2022-10-15T01:23:43;16.60;;;8.13;;
54360;SDS011;40258;53.936;27.540;2022-10-15T01:26:49;13.50;;;7.90;;
54360;SDS011;40258;53.936;27.540;2022-10-15T01:29:57;12.73;;;7.25;;
54360;SDS011;40258;53.936;27.540;2022-10-15T01:33:04;13.55;;;7.93;;
54360;SDS011;40258;53.936;27.540;2022-10-15T01:36:05;10.80;;;7.53;;
54360;SDS011;40258;53.936;27.540;2022-10-15T01:38:47;15.95;;;7.85;;
54360;SDS011;40258;53.936;27.540;2022-10-15T01:41:26;17.40;;;8.52;;
54360;SDS011;40258;53.936;27.540;2022-10-15T01:44:05;15.25;;;8.23;;
54360;SDS011;40258;53.936;27.540;2022-10-15T01:47:13;14.85;;;8.43;;
54360;SDS011;40258;53.936;27.540;2022-10-15T01:49:47;13.57;;;7.85;;
54360;SDS011;40258;53.936;27.540;2022-10-15T01:52:20;13.27;;;8.43;;
54360;SDS011;40258;53.936;27.540;2022-10-15T01:54:52;15.77;;;8.43;;
54360;SDS011;40258;53.936;27.540;2022-10-15T01:57:22;16.75;;;8.90;;
54360;SDS011;40258;53.936;27.540;2022-10-15T01:59:53;12.50;;;8.20;;
54360;SDS011;40258;53.936;27.540;2022-10-15T02:02:24;15.63;;;8.40;;
54360;SDS011;40258;53.936;27.540;2022-10-15T02:04:53;16.75;;;8.35;;
54360;SDS011;40258;53.936;27.540;2022-10-15T02:07:26;16.05;;;8.10;;
54360;SDS011;40258;53.936;27.540;2022-10-15T02:10:05;14.70;;;8.18;;
54360;SDS011;40258;53.936;27.540;2022-10-15T02:15:16;18.60;;;8.85;;
54360;SDS011;40258;53.936;27.540;2022-10-15T02:17:54;15.75;;;8.70;;
54360;SDS011;40258;53.936;27.540;2022-10-15T02:20:29;19.77;;;8.55;;
54360;SDS011;40258;53.936;27.540;2022-10-15T02:23:08;15.63;;;8.48;;
54360;SDS011;40258;53.936;27.540;2022-10-15T02:25:43;16.52;;;9.00;;
54360;SDS011;40258;53.936;27.540;2022-10-15T02:28:13;14.60;;;8.48;;
54360;SDS011;40258;53.936;27.540;2022-10-15T02:30:45;14.45;;;8.65;;
54360;SDS011;40258;53.936;27.540;2022-10-15T02:33:20;18.88;;;8.32;;
54360;SDS011;40258;53.936;27.540;2022-10-15T02:35:49;16.77;;;9.02;;
54360;SDS011;40258;53.936;27.540;2022-10-15T02:38:19;16.10;;;9.00;;
54360;SDS011;40258;53.936;27.540;2022-10-15T02:40:51;18.65;;;9.13;;
54360;SDS011;40258;53.936;27.540;2022-10-15T02:43:21;14.43;;;8.63;;
54360;SDS011;40258;53.936;27.540;2022-10-15T02:45:50;15.73;;;9.27;;
54360;SDS011;40258;53.936;27.540;2022-10-15T02:48:21;15.18;;;9.45;;
54360;SDS011;40258;53.936;27.540;2022-10-15T02:50:51;15.48;;;9.50;;
54360;SDS011;40258;53.936;27.540;2022-10-15T02:53:19;15.23;;;8.65;;
54360;SDS011;40258;53.936;27.540;2022-10-15T02:55:48;18.15;;;8.77;;
54360;SDS011;40258;53.936;27.540;2022-10-15T02:58:17;16.38;;;8.40;;
54360;SDS011;40258;53.936;27.540;2022-10-15T03:00:46;15.35;;;9.07;;
54360;SDS011;40258;53.936;27.540;2022-10-15T03:03:15;15.30;;;9.23;;
54360;SDS011;40258;53.936;27.540;2022-10-15T03:05:46;14.68;;;8.77;;
54360;SDS011;40258;53.936;27.540;2022-10-15T03:08:15;13.70;;;9.38;;
54360;SDS011;40258;53.936;27.540;2022-10-15T03:10:44;21.40;;;9.80;;
54360;SDS011;40258;53.936;27.540;2022-10-15T03:13:13;21.17;;;10.02;;
54360;SDS011;40258;53.936;27.540;2022-10-15T03:15:47;16.40;;;9.65;;
54360;SDS011;40258;53.936;27.540;2022-10-15T03:18:16;19.38;;;9.23;;
54360;SDS011;40258;53.936;27.540;2022-10-15T03:20:52;18.35;;;9.02;;
54360;SDS011;40258;53.936;27.540;2022-10-15T03:23:21;14.93;;;8.73;;
54360;SDS011;40258;53.936;27.540;2022-10-15T03:25:58;17.48;;;9.30;;
54360;SDS011;40258;53.936;27.540;2022-10-15T03:28:28;21.00;;;10.18;;
54360;SDS011;40258;53.936;27.540;2022-10-15T03:30:56;14.75;;;9.48;;
54360;SDS011;40258;53.936;27.540;2022-10-15T03:33:26;14.63;;;8.68;;
54360;SDS011;40258;53.936;27.540;2022-10-15T03:35:56;16.23;;;9.70;;
54360;SDS011;40258;53.936;27.540;2022-10-15T03:38:25;14.43;;;8.95;;
54360;SDS011;40258;53.936;27.540;2022-10-15T03:40:53;16.65;;;8.45;;
54360;SDS011;40258;53.936;27.540;2022-10-15T03:43:32;18.63;;;9.35;;
54360;SDS011;40258;53.936;27.540;2022-10-15T03:46:03;16.95;;;9.35;;
54360;SDS011;40258;53.936;27.540;2022-10-15T03:48:37;21.05;;;9.10;;
54360;SDS011;40258;53.936;27.540;2022-10-15T03:51:07;16.88;;;10.05;;
54360;SDS011;40258;53.936;27.540;2022-10-15T03:53:36;14.93;;;9.75;;
54360;SDS011;40258;53.936;27.540;2022-10-15T03:56:05;18.20;;;9.82;;
54360;SDS011;40258;53.936;27.540;2022-10-15T03:58:37;17.77;;;9.45;;
54360;SDS011;40258;53.936;27.540;2022-10-15T04:01:12;15.75;;;9.02;;
54360;SDS011;40258;53.936;27.540;2022-10-15T04:03:43;14.88;;;9.73;;
54360;SDS011;40258;53.936;27.540;2022-10-15T04:06:17;16.23;;;10.15;;
54360;SDS011;40258;53.936;27.540;2022-10-15T04:08:45;21.55;;;9.82;;
54360;SDS011;40258;53.936;27.540;2022-10-15T04:11:21;16.35;;;9.90;;
54360;SDS011;40258;53.936;27.540;2022-10-15T04:13:59;18.08;;;10.48;;
54360;SDS011;40258;53.936;27.540;2022-10-15T04:16:29;19.05;;;10.27;;
54360;SDS011;40258;53.936;27.540;2022-10-15T04:19:00;18.02;;;10.25;;
54360;SDS011;40258;53.936;27.540;2022-10-15T04:21:29;18.02;;;9.98;;
54360;SDS011;40258;53.936;27.540;2022-10-15T04:24:02;18.75;;;10.30;;
54360;SDS011;40258;53.936;27.540;2022-10-15T04:26:36;21.20;;;9.70;;
54360;SDS011;40258;53.936;27.540;2022-10-15T04:29:05;16.65;;;10.05;;
54360;SDS011;40258;53.936;27.540;2022-10-15T04:31:34;20.58;;;10.85;;
54360;SDS011;40258;53.936;27.540;2022-10-15T04:34:04;26.73;;;11.57;;
54360;SDS011;40258;53.936;27.540;2022-10-15T04:36:34;19.95;;;10.73;;
54360;SDS011;40258;53.936;27.540;2022-10-15T04:39:12;17.13;;;9.90;;
54360;SDS011;40258;53.936;27.540;2022-10-15T04:41:42;16.63;;;9.45;;
54360;SDS011;40258;53.936;27.540;2022-10-15T04:44:21;19.33;;;10.80;;
54360;SDS011;40258;53.936;27.540;2022-10-15T04:46:54;18.55;;;10.25;;
54360;SDS011;40258;53.936;27.540;2022-10-15T04:49:41;17.45;;;9.80;;
54360;SDS011;40258;53.936;27.540;2022-10-15T04:52:27;17.63;;;10.07;;
54360;SDS011;40258;53.936;27.540;2022-10-15T04:54:58;18.67;;;10.63;;
54360;SDS011;40258;53.936;27.540;2022-10-15T04:57:28;17.58;;;9.60;;
54360;SDS011;40258;53.936;27.540;2022-10-15T04:59:57;16.15;;;9.65;;
54360;SDS011;40258;53.936;27.540;2022-10-15T05:02:48;20.58;;;10.18;;
54360;SDS011;40258;53.936;27.540;2022-10-15T05:05:21;17.33;;;10.25;;
54360;SDS011;40258;53.936;27.540;2022-10-15T05:07:59;16.55;;;9.68;;
54360;SDS011;40258;53.936;27.540;2022-10-15T05:10:31;19.25;;;9.27;;
54360;SDS011;40258;53.936;27.540;2022-10-15T05:13:03;19.98;;;9.80;;
54360;SDS011;40258;53.936;27.540;2022-10-15T05:15:35;20.83;;;10.18;;
54360;SDS011;40258;53.936;27.540;2022-10-15T05:18:07;17.35;;;9.43;;
54360;SDS011;40258;53.936;27.540;2022-10-15T05:20:45;17.80;;;8.75;;
54360;SDS011;40258;53.936;27.540;2022-10-15T05:23:18;17.38;;;9.57;;
54360;SDS011;40258;53.936;27.540;2022-10-15T05:25:59;20.23;;;10.23;;
54360;SDS011;40258;53.936;27.540;2022-10-15T05:28:28;15.93;;;9.57;;
54360;SDS011;40258;53.936;27.540;2022-10-15T05:31:02;14.63;;;9.50;;
54360;SDS011;40258;53.936;27.540;2022-10-15T05:33:32;13.35;;;9.27;;
54360;SDS011;40258;53.936;27.540;2022-10-15T05:36:07;14.93;;;8.70;;
54360;SDS011;40258;53.936;27.540;2022-10-15T05:38:39;17.45;;;9.23;;
54360;SDS011;40258;53.936;27.540;2022-10-15T05:41:08;15.63;;;9.07;;
54360;SDS011;40258;53.936;27.540;2022-10-15T05:43:37;14.60;;;8.25;;
54360;SDS011;40258;53.936;27.540;2022-10-15T05:46:09;21.88;;;8.45;;
54360;SDS011;40258;53.936;27.540;2022-10-15T05:48:38;16.33;;;8.30;;
54360;SDS011;40258;53.936;27.540;2022-10-15T05:51:07;17.73;;;8.32;;
54360;SDS011;40258;53.936;27.540;2022-10-15T05:53:39;14.07;;;8.40;;
54360;SDS011;40258;53.936;27.540;2022-10-15T05:56:08;15.57;;;8.25;;
54360;SDS011;40258;53.936;27.540;2022-10-15T05:58:37;19.00;;;8.15;;
54360;SDS011;40258;53.936;27.540;2022-10-15T06:01:06;14.35;;;8.07;;
54360;SDS011;40258;53.936;27.540;2022-10-15T06:03:37;14.27;;;8.77;;
54360;SDS011;40258;53.936;27.540;2022-10-15T06:06:12;11.05;;;7.47;;
54360;SDS011;40258;53.936;27.540;2022-10-15T06:08:43;19.52;;;7.88;;
54360;SDS011;40258;53.936;27.540;2022-10-15T06:11:12;17.80;;;8.30;;
54360;SDS011;40258;53.936;27.540;2022-10-15T06:13:41;16.58;;;8.60;;
54360;SDS011;40258;53.936;27.540;2022-10-15T06:16:12;13.68;;;8.55;;
54360;SDS011;40258;53.936;27.540;2022-10-15T06:18:43;17.45;;;7.63;;
54360;SDS011;40258;53.936;27.540;2022-10-15T06:21:11;13.73;;;6.97;;
54360;SDS011;40258;53.936;27.540;2022-10-15T06:23:40;15.15;;;7.90;;
54360;SDS011;40258;53.936;27.540;2022-10-15T06:26:10;15.48;;;8.82;;
54360;SDS011;40258;53.936;27.540;2022-10-15T06:28:41;13.85;;;8.60;;
54360;SDS011;40258;53.936;27.540;2022-10-15T06:31:09;14.77;;;7.97;;
54360;SDS011;40258;53.936;27.540;2022-10-15T06:33:38;15.93;;;7.88;;
54360;SDS011;40258;53.936;27.540;2022-10-15T06:36:08;14.98;;;9.15;;
54360;SDS011;40258;53.936;27.540;2022-10-15T06:38:38;14.57;;;7.85;;
54360;SDS011;40258;53.936;27.540;2022-10-15T06:41:11;15.57;;;9.63;;
54360;SDS011;40258;53.936;27.540;2022-10-15T06:43:41;17.38;;;8.88;;
54360;SDS011;40258;53.936;27.540;2022-10-15T06:46:11;17.48;;;9.43;;
54360;SDS011;40258;53.936;27.540;2022-10-15T06:48:39;16.73;;;9.40;;
54360;SDS011;40258;53.936;27.540;2022-10-15T06:51:07;13.18;;;7.70;;
54360;SDS011;40258;53.936;27.540;2022-10-15T06:53:36;13.43;;;9.13;;
54360;SDS011;40258;53.936;27.540;2022-10-15T06:56:07;17.15;;;9.98;;
54360;SDS011;40258;53.936;27.540;2022-10-15T06:58:39;17.55;;;10.40;;
54360;SDS011;40258;53.936;27.540;2022-10-15T07:01:08;21.30;;;10.00;;
54360;SDS011;40258;53.936;27.540;2022-10-15T07:03:37;15.15;;;9.75;;
54360;SDS011;40258;53.936;27.540;2022-10-15T07:06:07;16.48;;;9.40;;
54360;SDS011;40258;53.936;27.540;2022-10-15T07:08:36;16.70;;;9.55;;
54360;SDS011;40258;53.936;27.540;2022-10-15T07:11:05;13.88;;;9.88;;
54360;SDS011;40258;53.936;27.540;2022-10-15T07:13:35;17.60;;;10.23;;
54360;SDS011;40258;53.936;27.540;2022-10-15T07:16:07;17.25;;;8.77;;
54360;SDS011;40258;53.936;27.540;2022-10-15T07:18:37;18.73;;;10.20;;
54360;SDS011;40258;53.936;27.540;2022-10-15T07:21:06;18.40;;;10.10;;
54360;SDS011;40258;53.936;27.540;2022-10-15T07:23:37;14.32;;;9.35;;
54360;SDS011;40258;53.936;27.540;2022-10-15T07:26:05;13.98;;;9.68;;
54360;SDS011;40258;53.936;27.540;2022-10-15T07:28:33;15.35;;;9.65;;
54360;SDS011;40258;53.936;27.540;2022-10-15T07:31:02;22.00;;;10.35;;
54360;SDS011;40258;53.936;27.540;2022-10-15T07:33:34;15.68;;;9.38;;
54360;SDS011;40258;53.936;27.540;2022-10-15T07:36:03;18.88;;;10.93;;
54360;SDS011;40258;53.936;27.540;2022-10-15T07:38:35;19.60;;;11.50;;
54360;SDS011;40258;53.936;27.540;2022-10-15T07:41:05;17.92;;;10.95;;
54360;SDS011;40258;53.936;27.540;2022-10-15T07:43:41;17.33;;;11.35;;
54360;SDS011;40258;53.936;27.540;2022-10-15T07:46:12;18.15;;;10.98;;
54360;SDS011;40258;53.936;27.540;2022-10-15T07:48:40;19.33;;;11.88;;
54360;SDS011;40258;53.936;27.540;2022-10-15T07:51:09;18.73;;;11.52;;
54360;SDS011;40258;53.936;27.540;2022-10-15T07:53:38;21.75;;;12.38;;
54360;SDS011;40258;53.936;27.540;2022-10-15T07:56:07;22.10;;;12.00;;
54360;SDS011;40258;53.936;27.540;2022-10-15T07:58:39;22.35;;;11.52;;
54360;SDS011;40258;53.936;27.540;2022-10-15T08:01:09;22.13;;;11.82;;
54360;SDS011;40258;53.936;27.540;2022-10-15T08:03:39;19.48;;;11.82;;
54360;SDS011;40258;53.936;27.540;2022-10-15T08:06:08;18.13;;;11.57;;
54360;SDS011;40258;53.936;27.540;2022-10-15T08:08:36;19.30;;;10.80;;
54360;SDS011;40258;53.936;27.540;2022-10-15T08:11:06;17.27;;;11.20;;
54360;SDS011;40258;53.936;27.540;2022-10-15T08:13:36;18.70;;;10.77;;
54360;SDS011;40258;53.936;27.540;2022-10-15T08:16:07;19.63;;;10.95;;
54360;SDS011;40258;53.936;27.540;2022-10-15T08:18:38;20.30;;;11.77;;
54360;SDS011;40258;53.936;27.540;2022-10-15T08:21:07;18.55;;;10.45;;
54360;SDS011;40258;53.936;27.540;2022-10-15T08:23:37;19.25;;;10.55;;
54360;SDS011;40258;53.936;27.540;2022-10-15T08:26:05;18.02;;;10.68;;
54360;SDS011;40258;53.936;27.540;2022-10-15T08:28:34;18.88;;;10.85;;
54360;SDS011;40258;53.936;27.540;2022-10-15T08:31:02;18.67;;;10.52;;
54360;SDS011;40258;53.936;27.540;2022-10-15T08:33:32;16.75;;;11.25;;
54360;SDS011;40258;53.936;27.540;2022-10-15T08:36:04;19.13;;;11.98;;
54360;SDS011;40258;53.936;27.540;2022-10-15T08:38:34;18.42;;;11.13;;
54360;SDS011;40258;53.936;27.540;2022-10-15T08:41:04;20.77;;;10.88;;
54360;SDS011;40258;53.936;27.540;2022-10-15T08:43:46;18.65;;;11.40;;
54360;SDS011;40258;53.936;27.540;2022-10-15T08:46:16;20.00;;;10.00;;
54360;SDS011;40258;53.936;27.540;2022-10-15T08:48:50;20.17;;;10.55;;
54360;SDS011;40258;53.936;27.540;2022-10-15T08:51:24;16.60;;;10.50;;
54360;SDS011;40258;53.936;27.540;2022-10-15T08:53:57;17.30;;;10.60;;
54360;SDS011;40258;53.936;27.540;2022-10-15T08:56:29;17.40;;;10.75;;
54360;SDS011;40258;53.936;27.540;2022-10-15T08:59:06;18.52;;;11.32;;
54360;SDS011;40258;53.936;27.540;2022-10-15T09:01:47;15.70;;;9.65;;
54360;SDS011;40258;53.936;27.540;2022-10-15T09:04:24;19.38;;;10.20;;
54360;SDS011;40258;53.936;27.540;2022-10-15T09:07:01;15.55;;;9.10;;
54360;SDS011;40258;53.936;27.540;2022-10-15T09:09:41;15.32;;;9.80;;
54360;SDS011;40258;53.936;27.540;2022-10-15T09:12:17;14.60;;;9.93;;
54360;SDS011;40258;53.936;27.540;2022-10-15T09:15:04;17.20;;;9.95;;
54360;SDS011;40258;53.936;27.540;2022-10-15T09:17:41;12.90;;;8.77;;
54360;SDS011;40258;53.936;27.540;2022-10-15T09:20:18;14.93;;;10.05;;
54360;SDS011;40258;53.936;27.540;2022-10-15T09:22:54;14.43;;;8.48;;
54360;SDS011;40258;53.936;27.540;2022-10-15T09:25:24;13.98;;;8.88;;
54360;SDS011;40258;53.936;27.540;2022-10-15T09:27:58;14.73;;;8.68;;
54360;SDS011;40258;53.936;27.540;2022-10-15T09:30:36;15.63;;;9.30;;
54360;SDS011;40258;53.936;27.540;2022-10-15T09:33:12;14.60;;;9.35;;
54360;SDS011;40258;53.936;27.540;2022-10-15T09:35:50;17.98;;;9.32;;
54360;SDS011;40258;53.936;27.540;2022-10-15T09:38:26;12.73;;;8.38;;
54360;SDS011;40258;53.936;27.540;2022-10-15T09:41:07;15.43;;;9.48;;
54360;SDS011;40258;53.936;27.540;2022-10-15T09:43:47;13.40;;;8.40;;
54360;SDS011;40258;53.936;27.540;2022-10-15T09:46:18;14.90;;;8.88;;
54360;SDS011;40258;53.936;27.540;2022-10-15T09:48:49;14.18;;;8.10;;
54360;SDS011;40258;53.936;27.540;2022-10-15T09:51:30;12.13;;;8.85;;
54360;SDS011;40258;53.936;27.540;2022-10-15T09:54:07;12.38;;;7.97;;
54360;SDS011;40258;53.936;27.540;2022-10-15T09:56:44;12.32;;;7.90;;
54360;SDS011;40258;53.936;27.540;2022-10-15T09:59:19;13.90;;;8.63;;
54360;SDS011;40258;53.936;27.540;2022-10-15T10:01:57;13.18;;;8.70;;
54360;SDS011;40258;53.936;27.540;2022-10-15T10:04:27;18.17;;;8.25;;
54360;SDS011;40258;53.936;27.540;2022-10-15T10:06:59;18.08;;;8.48;;
54360;SDS011;40258;53.936;27.540;2022-10-15T10:09:35;12.27;;;7.70;;
54360;SDS011;40258;53.936;27.540;2022-10-15T10:12:16;15.52;;;7.65;;
54360;SDS011;40258;53.936;27.540;2022-10-15T10:14:52;14.52;;;8.35;;
54360;SDS011;40258;53.936;27.540;2022-10-15T10:17:24;12.07;;;7.78;;
54360;SDS011;40258;53.936;27.540;2022-10-15T10:20:12;16.27;;;8.32;;
54360;SDS011;40258;53.936;27.540;2022-10-15T10:22:45;13.18;;;8.52;;
54360;SDS011;40258;53.936;27.540;2022-10-15T10:25:27;15.10;;;8.07;;
54360;SDS011;40258;53.936;27.540;2022-10-15T10:28:02;13.10;;;8.05;;
54360;SDS011;40258;53.936;27.540;2022-10-15T10:30:45;13.55;;;7.53;;
54360;SDS011;40258;53.936;27.540;2022-10-15T10:33:21;12.90;;;8.15;;
54360;SDS011;40258;53.936;27.540;2022-10-15T10:35:54;14.05;;;7.35;;
54360;SDS011;40258;53.936;27.540;2022-10-15T10:38:24;13.07;;;7.40;;
54360;SDS011;40258;53.936;27.540;2022-10-15T10:40:57;13.70;;;7.55;;
54360;SDS011;40258;53.936;27.540;2022-10-15T10:43:32;12.73;;;6.50;;
54360;SDS011;40258;53.936;27.540;2022-10-15T10:46:03;11.40;;;7.30;;
54360;SDS011;40258;53.936;27.540;2022-10-15T10:48:42;13.00;;;6.65;;
54360;SDS011;40258;53.936;27.540;2022-10-15T10:51:14;13.32;;;7.28;;
54360;SDS011;40258;53.936;27.540;2022-10-15T10:53:50;10.77;;;6.57;;
54360;SDS011;40258;53.936;27.540;2022-10-15T10:56:24;12.82;;;7.38;;
54360;SDS011;40258;53.936;27.540;2022-10-15T10:59:01;13.23;;;6.55;;
54360;SDS011;40258;53.936;27.540;2022-10-15T11:01:41;16.02;;;7.18;;
54360;SDS011;40258;53.936;27.540;2022-10-15T11:04:11;10.35;;;6.40;;
54360;SDS011;40258;53.936;27.540;2022-10-15T11:06:43;12.10;;;6.63;;
54360;SDS011;40258;53.936;27.540;2022-10-15T11:09:35;13.88;;;6.65;;
54360;SDS011;40258;53.936;27.540;2022-10-15T11:12:32;9.55;;;6.32;;
54360;SDS011;40258;53.936;27.540;2022-10-15T11:15:19;14.43;;;6.80;;
54360;SDS011;40258;53.936;27.540;2022-10-15T11:18:07;11.80;;;6.82;;
54360;SDS011;40258;53.936;27.540;2022-10-15T11:21:12;12.10;;;6.22;;
54360;SDS011;40258;53.936;27.540;2022-10-15T11:23:59;17.33;;;7.03;;
54360;SDS011;40258;53.936;27.540;2022-10-15T11:26:48;11.60;;;6.68;;
54360;SDS011;40258;53.936;27.540;2022-10-15T11:29:47;9.75;;;6.20;;
54360;SDS011;40258;53.936;27.540;2022-10-15T11:32:30;12.10;;;7.00;;
54360;SDS011;40258;53.936;27.540;2022-10-15T11:35:20;13.13;;;6.32;;
54360;SDS011;40258;53.936;27.540;2022-10-15T11:38:07;11.32;;;6.18;;
54360;SDS011;40258;53.936;27.540;2022-10-15T11:40:49;12.82;;;6.45;;
54360;SDS011;40258;53.936;27.540;2022-10-15T11:43:40;10.02;;;5.65;;
54360;SDS011;40258;53.936;27.540;2022-10-15T11:46:24;12.45;;;6.32;;
54360;SDS011;40258;53.936;27.540;2022-10-15T11:49:03;12.05;;;7.22;;
54360;SDS011;40258;53.936;27.540;2022-10-15T11:51:48;12.77;;;7.32;;
54360;SDS011;40258;53.936;27.540;2022-10-15T11:54:36;14.10;;;6.70;;
54360;SDS011;40258;53.936;27.540;2022-10-15T11:57:09;13.43;;;7.20;;
54360;SDS011;40258;53.936;27.540;2022-10-15T11:59:44;9.40;;;6.18;;
54360;SDS011;40258;53.936;27.540;2022-10-15T12:02:23;10.80;;;6.22;;
54360;SDS011;40258;53.936;27.540;2022-10-15T12:05:00;10.80;;;6.13;;
54360;SDS011;40258;53.936;27.540;2022-10-15T12:07:36;11.60;;;6.20;;
54360;SDS011;40258;53.936;27.540;2022-10-15T12:10:15;13.70;;;5.90;;
54360;SDS011;40258;53.936;27.540;2022-10-15T12:13:01;11.07;;;5.68;;
54360;SDS011;40258;53.936;27.540;2022-10-15T12:15:38;12.27;;;6.00;;
54360;SDS011;40258;53.936;27.540;2022-10-15T12:18:18;13.00;;;6.45;;
54360;SDS011;40258;53.936;27.540;2022-10-15T12:20:54;9.27;;;5.68;;
54360;SDS011;40258;53.936;27.540;2022-10-15T12:23:24;11.38;;;5.88;;
54360;SDS011;40258;53.936;27.540;2022-10-15T12:26:25;9.50;;;5.70;;
54360;SDS011;40258;53.936;27.540;2022-10-15T12:29:00;13.10;;;6.35;;
54360;SDS011;40258;53.936;27.540;2022-10-15T12:31:47;11.52;;;5.72;;
54360;SDS011;40258;53.936;27.540;2022-10-15T12:37:14;11.98;;;6.55;;
54360;SDS011;40258;53.936;27.540;2022-10-15T12:39:45;11.30;;;5.85;;
54360;SDS011;40258;53.936;27.540;2022-10-15T12:42:25;9.68;;;5.47;;
54360;SDS011;40258;53.936;27.540;2022-10-15T12:44:57;10.70;;;5.80;;
54360;SDS011;40258;53.936;27.540;2022-10-15T12:47:45;9.80;;;5.82;;
54360;SDS011;40258;53.936;27.540;2022-10-15T12:50:20;10.70;;;5.63;;
54360;SDS011;40258;53.936;27.540;2022-10-15T12:52:53;9.73;;;5.65;;
54360;SDS011;40258;53.936;27.540;2022-10-15T12:55:28;11.93;;;5.93;;
54360;SDS011;40258;53.936;27.540;2022-10-15T12:58:00;9.75;;;6.10;;
54360;SDS011;40258;53.936;27.540;2022-10-15T13:00:38;11.13;;;6.32;;
54360;SDS011;40258;53.936;27.540;2022-10-15T13:03:16;10.40;;;6.28;;
54360;SDS011;40258;53.936;27.540;2022-10-15T13:06:23;10.13;;;6.43;;
54360;SDS011;40258;53.936;27.540;2022-10-15T13:11:59;14.65;;;7.35;;
54360;SDS011;40258;53.936;27.540;2022-10-15T13:14:32;10.93;;;6.85;;
54360;SDS011;40258;53.936;27.540;2022-10-15T13:17:12;13.10;;;6.93;;
54360;SDS011;40258;53.936;27.540;2022-10-15T13:19:51;11.98;;;6.82;;
54360;SDS011;40258;53.936;27.540;2022-10-15T13:22:25;13.10;;;6.55;;
54360;SDS011;40258;53.936;27.540;2022-10-15T13:24:56;10.43;;;5.85;;
54360;SDS011;40258;53.936;27.540;2022-10-15T13:27:25;11.50;;;6.90;;
54360;SDS011;40258;53.936;27.540;2022-10-15T13:29:58;13.30;;;6.63;;
54360;SDS011;40258;53.936;27.540;2022-10-15T13:32:31;11.10;;;5.85;;
54360;SDS011;40258;53.936;27.540;2022-10-15T13:35:08;12.07;;;6.65;;
54360;SDS011;40258;53.936;27.540;2022-10-15T13:37:40;12.15;;;6.70;;
54360;SDS011;40258;53.936;27.540;2022-10-15T13:40:15;11.60;;;6.35;;
54360;SDS011;40258;53.936;27.540;2022-10-15T13:42:56;14.30;;;7.47;;
54360;SDS011;40258;53.936;27.540;2022-10-15T13:45:27;13.13;;;7.20;;
54360;SDS011;40258;53.936;27.540;2022-10-15T13:47:56;11.80;;;6.90;;
54360;SDS011;40258;53.936;27.540;2022-10-15T13:50:25;13.02;;;6.38;;
54360;SDS011;40258;53.936;27.540;2022-10-15T13:52:58;13.90;;;6.57;;
54360;SDS011;40258;53.936;27.540;2022-10-15T13:55:32;13.68;;;7.13;;
54360;SDS011;40258;53.936;27.540;2022-10-15T13:58:06;11.93;;;6.72;;
54360;SDS011;40258;53.936;27.540;2022-10-15T14:00:48;13.00;;;6.38;;
54360;SDS011;40258;53.936;27.540;2022-10-15T14:03:22;14.65;;;7.20;;
54360;SDS011;40258;53.936;27.540;2022-10-15T14:05:53;13.02;;;6.32;;
54360;SDS011;40258;53.936;27.540;2022-10-15T14:08:26;12.88;;;6.13;;
54360;SDS011;40258;53.936;27.540;2022-10-15T14:13:28;15.50;;;6.45;;
54360;SDS011;40258;53.936;27.540;2022-10-15T14:16:11;11.05;;;5.88;;
54360;SDS011;40258;53.936;27.540;2022-10-15T14:18:46;13.77;;;6.13;;
54360;SDS011;40258;53.936;27.540;2022-10-15T14:21:19;15.27;;;5.93;;
54360;SDS011;40258;53.936;27.540;2022-10-15T14:24:02;12.02;;;5.95;;
54360;SDS011;40258;53.936;27.540;2022-10-15T14:26:33;11.25;;;5.32;;
54360;SDS011;40258;53.936;27.540;2022-10-15T14:29:04;13.25;;;6.50;;
54360;SDS011;40258;53.936;27.540;2022-10-15T14:31:36;11.45;;;6.03;;
54360;SDS011;40258;53.936;27.540;2022-10-15T14:37:29;11.27;;;6.05;;
54360;SDS011;40258;53.936;27.540;2022-10-15T14:40:15;11.52;;;5.65;;
54360;SDS011;40258;53.936;27.540;2022-10-15T14:42:47;12.32;;;5.97;;
54360;SDS011;40258;53.936;27.540;2022-10-15T14:45:29;13.18;;;5.90;;
54360;SDS011;40258;53.936;27.540;2022-10-15T14:48:07;9.10;;;5.68;;
54360;SDS011;40258;53.936;27.540;2022-10-15T14:50:40;13.57;;;5.75;;
54360;SDS011;40258;53.936;27.540;2022-10-15T14:53:13;11.60;;;6.53;;
54360;SDS011;40258;53.936;27.540;2022-10-15T14:55:48;12.30;;;7.20;;
54360;SDS011;40258;53.936;27.540;2022-10-15T14:58:21;11.05;;;6.43;;
54360;SDS011;40258;53.936;27.540;2022-10-15T15:00:53;11.45;;;6.70;;
54360;SDS011;40258;53.936;27.540;2022-10-15T15:03:25;15.90;;;7.63;;
54360;SDS011;40258;53.936;27.540;2022-10-15T15:05:56;10.90;;;6.78;;
54360;SDS011;40258;53.936;27.540;2022-10-15T15:08:24;14.38;;;7.95;;
54360;SDS011;40258;53.936;27.540;2022-10-15T15:10:55;14.35;;;7.13;;
54360;SDS011;40258;53.936;27.540;2022-10-15T15:13:27;15.20;;;7.90;;
54360;SDS011;40258;53.936;27.540;2022-10-15T15:15:57;13.68;;;7.93;;
54360;SDS011;40258;53.936;27.540;2022-10-15T15:18:25;12.10;;;6.53;;